Time;durP1;ratioP1;P1;durP2;ratioP2;P2;SDS_P1;SDS_P2;PMS_P1;PMS_P2;Temp;Humidity;BMP_temperature;BMP_pressure;BME280_temperature;BME280_humidity;BME280_pressure;Samples;Min_cycle;Max_cycle;Signal;HPM_P1;HPM_P2
2022/02/02 00:00:13;;;;;;;43.95;6.90;;;7.10;99.90;;;;;;5016671;28;20156;-60
2022/02/02 00:02:48;;;;;;;35.78;7.25;;;7.10;99.90;;;;;;5020064;28;20029;-60
2022/02/02 00:05:33;;;;;;;31.48;5.35;;;7.00;99.90;;;;;;5020809;28;20091;-60
2022/02/02 00:13:05;;;;;;;43.78;5.95;;;7.00;99.90;;;;;;5018522;28;20022;-60
2022/02/02 00:15:43;;;;;;;34.40;7.03;;;7.00;99.90;;;;;;5024772;28;20030;-60
2022/02/02 00:18:32;;;;;;;38.30;5.20;;;7.00;99.90;;;;;;5026481;28;20069;-60
2022/02/02 00:20:59;;;;;;;45.95;5.82;;;7.00;99.90;;;;;;5025277;28;20739;-60
2022/02/02 00:23:31;;;;;;;43.78;7.10;;;7.00;99.90;;;;;;5024393;28;20527;-60
2022/02/02 00:26:05;;;;;;;48.33;7.00;;;7.00;99.90;;;;;;5022428;28;20038;-59
2022/02/02 00:28:35;;;;;;;45.05;6.88;;;7.00;99.90;;;;;;5019893;28;20065;-59
2022/02/02 00:31:05;;;;;;;31.90;5.13;;;7.00;99.90;;;;;;5016247;28;20403;-59
2022/02/02 00:33:37;;;;;;;44.25;5.53;;;7.10;99.90;;;;;;5020810;28;20032;-60
2022/02/02 00:36:08;;;;;;;42.17;6.25;;;7.10;99.90;;;;;;5030053;28;20032;-59
2022/02/02 00:38:34;;;;;;;49.30;6.63;;;7.10;99.90;;;;;;5030810;28;20025;-59
2022/02/02 00:41:00;;;;;;;46.35;9.07;;;7.10;99.90;;;;;;5019500;28;20095;-58
2022/02/02 00:43:26;;;;;;;41.60;7.20;;;7.10;99.90;;;;;;5021187;28;20519;-59
2022/02/02 00:45:51;;;;;;;39.72;7.28;;;7.10;99.90;;;;;;5024199;28;20674;-59
2022/02/02 00:48:18;;;;;;;32.40;5.82;;;7.10;99.90;;;;;;5026845;28;20026;-58
2022/02/02 00:50:45;;;;;;;33.20;8.18;;;7.10;99.90;;;;;;5029614;28;20022;-60
2022/02/02 00:53:12;;;;;;;29.40;6.43;;;7.00;99.90;;;;;;5028694;28;20021;-60
2022/02/02 00:55:38;;;;;;;51.97;6.38;;;6.90;99.90;;;;;;5031072;28;20041;-58
2022/02/02 00:58:04;;;;;;;37.13;5.25;;;6.90;99.90;;;;;;5031148;28;20032;-60
2022/02/02 01:00:30;;;;;;;43.08;6.18;;;6.90;99.90;;;;;;5029339;28;20033;-60
2022/02/02 01:02:56;;;;;;;28.92;5.00;;;6.90;99.90;;;;;;5028518;28;20021;-60
2022/02/02 01:05:21;;;;;;;37.25;5.63;;;6.80;99.90;;;;;;5027170;28;20710;-59
2022/02/02 01:10:31;;;;;;;35.28;5.82;;;6.70;99.90;;;;;;5030606;28;20025;-57
2022/02/02 01:18:33;;;;;;;40.88;6.43;;;6.50;99.90;;;;;;5029409;28;20060;-60
2022/02/02 01:21:02;;;;;;;41.92;7.55;;;6.50;99.90;;;;;;5025654;28;20034;-60
2022/02/02 01:28:57;;;;;;;39.60;7.78;;;6.60;99.90;;;;;;5030725;28;20422;-58
2022/02/02 01:31:23;;;;;;;38.63;5.57;;;6.60;99.90;;;;;;5033517;28;20025;-60
2022/02/02 01:33:49;;;;;;;46.85;6.78;;;6.60;99.90;;;;;;5026131;28;20076;-59
2022/02/02 01:36:15;;;;;;;46.10;6.30;;;6.70;99.90;;;;;;5031317;28;20410;-60
2022/02/02 01:38:42;;;;;;;47.60;8.73;;;6.70;99.90;;;;;;5025938;28;20440;-59
2022/02/02 01:41:16;;;;;;;59.88;7.20;;;6.70;99.90;;;;;;5028153;28;20117;-60
2022/02/02 01:44:09;;;;;;;49.33;7.13;;;6.70;99.90;;;;;;5020423;28;20037;-58
2022/02/02 01:46:36;;;;;;;56.42;7.00;;;6.70;99.90;;;;;;5026957;28;20065;-57
2022/02/02 01:51:54;;;;;;;53.92;7.70;;;6.70;99.90;;;;;;5027004;28;20061;-60
2022/02/02 01:54:53;;;;;;;59.20;7.95;;;6.60;99.90;;;;;;5025349;28;20032;-60
2022/02/02 01:59:45;;;;;;;51.88;8.27;;;6.60;99.90;;;;;;4983228;28;20121;-60
2022/02/02 02:02:10;;;;;;;44.97;6.53;;;6.60;99.90;;;;;;5027206;28;20679;-58
2022/02/02 02:04:37;;;;;;;53.30;8.82;;;6.50;99.90;;;;;;5031195;28;20067;-60
2022/02/02 02:07:03;;;;;;;47.75;7.40;;;6.50;99.90;;;;;;5023917;28;20041;-60
2022/02/02 02:09:30;;;;;;;43.80;5.90;;;6.60;99.90;;;;;;5031530;28;20057;-60
2022/02/02 02:12:00;;;;;;;41.47;6.47;;;6.60;99.90;;;;;;5032228;28;20033;-60
2022/02/02 02:17:04;;;;;;;43.45;7.90;;;6.70;99.90;;;;;;5021426;28;20388;-61
2022/02/02 02:19:30;;;;;;;41.08;6.30;;;6.70;99.90;;;;;;5018119;28;20041;-61
2022/02/02 02:21:55;;;;;;;52.42;8.32;;;6.80;99.90;;;;;;5032195;28;20375;-60
2022/02/02 02:24:21;;;;;;;48.17;7.55;;;6.80;99.90;;;;;;5023721;28;20045;-60
2022/02/02 02:26:47;;;;;;;43.10;6.78;;;6.80;99.90;;;;;;5022333;28;20044;-60
2022/02/02 02:29:29;;;;;;;39.92;7.03;;;6.80;99.90;;;;;;5023334;28;20017;-57
2022/02/02 02:32:16;;;;;;;48.90;6.35;;;6.80;99.90;;;;;;5025400;28;20026;-61
2022/02/02 02:35:16;;;;;;;43.88;7.00;;;6.70;99.90;;;;;;5024949;28;20038;-59
2022/02/02 02:55:47;;;;;;;34.38;7.05;;;6.80;99.90;;;;;;5031638;28;20075;-59
2022/02/02 02:56:51;;;;;;;45.03;7.18;;;6.80;99.90;;;;;;5031684;28;20056;-60
2022/02/02 02:59:30;;;;;;;46.75;6.65;;;6.70;99.90;;;;;;5031094;28;20037;-59
2022/02/02 03:51:09;;;;;;;39.30;5.82;;;6.70;99.90;;;;;;5026671;28;20040;-59
2022/02/02 04:02:04;;;;;;;49.10;7.85;;;6.70;99.90;;;;;;5010503;28;20076;-58
2022/02/02 04:07:15;;;;;;;46.45;7.47;;;6.60;99.90;;;;;;5036729;28;19913;-59
2022/02/02 04:09:42;;;;;;;35.13;6.20;;;6.60;99.90;;;;;;5038998;28;20430;-60
2022/02/02 04:39:12;;;;;;;55.78;7.55;;;6.70;99.90;;;;;;5040716;28;20536;-60
2022/02/02 04:53:18;;;;;;;40.65;6.00;;;6.70;99.90;;;;;;5037076;28;20103;-60
2022/02/02 05:06:44;;;;;;;42.72;6.50;;;6.70;99.90;;;;;;5006015;28;20497;-59
2022/02/02 05:20:00;;;;;;;35.15;5.78;;;6.70;99.90;;;;;;5035711;28;20087;-60
2022/02/02 05:51:56;;;;;;;45.17;8.15;;;6.80;99.90;;;;;;5045564;28;20037;-59
2022/02/02 05:54:23;;;;;;;44.75;6.85;;;6.70;99.90;;;;;;5034972;28;20045;-60
2022/02/02 05:56:51;;;;;;;44.47;7.63;;;6.70;99.90;;;;;;5037220;28;20044;-59
2022/02/02 05:59:25;;;;;;;46.75;7.65;;;6.70;99.90;;;;;;5041941;28;20380;-60
2022/02/02 06:01:57;;;;;;;48.60;6.30;;;6.70;99.90;;;;;;5029235;28;20415;-59
2022/02/02 06:04:25;;;;;;;35.58;6.28;;;6.60;99.90;;;;;;5036645;28;20642;-61
2022/02/02 06:06:53;;;;;;;49.08;6.88;;;6.70;99.90;;;;;;5039978;28;20029;-60
2022/02/02 06:09:20;;;;;;;42.30;7.05;;;6.60;99.90;;;;;;5040104;28;20148;-60
2022/02/02 06:11:51;;;;;;;44.60;5.97;;;6.60;99.90;;;;;;5042156;28;20052;-60
2022/02/02 06:14:23;;;;;;;40.25;6.45;;;6.70;99.90;;;;;;5036413;28;20427;-60
2022/02/02 06:16:57;;;;;;;48.20;8.55;;;6.70;99.90;;;;;;5041241;28;20036;-60
2022/02/02 06:19:25;;;;;;;51.15;7.90;;;6.70;99.90;;;;;;5041836;28;20032;-57
2022/02/02 06:22:01;;;;;;;41.38;7.70;;;6.60;99.90;;;;;;5037614;28;20018;-57
2022/02/02 06:24:31;;;;;;;47.67;7.90;;;6.60;99.90;;;;;;5042806;28;20025;-60
2022/02/02 06:27:05;;;;;;;45.08;7.78;;;6.60;99.90;;;;;;5041541;28;20505;-60
2022/02/02 06:29:35;;;;;;;46.85;9.07;;;6.70;99.90;;;;;;5037727;28;20577;-59
2022/02/02 06:32:01;;;;;;;57.05;9.27;;;6.60;99.90;;;;;;5040741;28;20029;-60
2022/02/02 06:34:30;;;;;;;45.75;6.32;;;6.60;99.90;;;;;;5044010;28;20032;-60
2022/02/02 06:37:00;;;;;;;49.58;9.00;;;6.70;99.90;;;;;;5042202;28;20083;-59
2022/02/02 06:39:26;;;;;;;47.10;7.05;;;6.60;99.90;;;;;;5033396;28;20454;-60
2022/02/02 06:41:56;;;;;;;55.67;8.32;;;6.60;99.90;;;;;;5036301;28;20029;-60
2022/02/02 06:44:22;;;;;;;42.70;9.60;;;6.70;99.90;;;;;;5045026;28;20060;-61
2022/02/02 06:46:49;;;;;;;39.85;5.90;;;6.60;99.90;;;;;;5040364;28;20136;-59
2022/02/02 06:49:14;;;;;;;42.97;6.80;;;6.70;99.90;;;;;;5043389;28;20038;-60
2022/02/02 06:52:18;;;;;;;32.60;7.95;;;6.70;99.90;;;;;;5038367;28;20656;-60
2022/02/02 06:54:47;;;;;;;50.78;9.00;;;6.70;99.90;;;;;;5037311;28;20049;-59
2022/02/02 06:57:20;;;;;;;49.95;9.77;;;6.70;99.90;;;;;;5040252;28;20025;-60
2022/02/02 07:08:22;;;;;;;43.40;8.45;;;6.70;99.90;;;;;;5042770;28;20036;-59
2022/02/02 07:19:04;;;;;;;50.95;9.27;;;6.70;99.90;;;;;;5048421;28;20943;-59
2022/02/02 07:32:18;;;;;;;40.78;6.57;;;6.80;99.90;;;;;;5042384;28;20025;-59
2022/02/02 07:35:12;;;;;;;51.72;9.95;;;6.80;99.90;;;;;;5040187;28;20049;-60
2022/02/02 07:38:02;;;;;;;42.83;6.33;;;6.90;99.90;;;;;;5037582;28;20032;-59
2022/02/02 07:40:29;;;;;;;51.65;7.63;;;6.80;99.90;;;;;;5038319;28;20765;-60
2022/02/02 07:43:01;;;;;;;47.70;8.80;;;6.80;99.90;;;;;;5040846;28;20026;-60
2022/02/02 07:45:29;;;;;;;52.45;8.45;;;6.80;99.90;;;;;;5041132;28;20112;-59
2022/02/02 07:47:59;;;;;;;42.60;7.60;;;6.90;99.90;;;;;;5037058;28;20391;-57
2022/02/02 07:50:28;;;;;;;37.13;5.72;;;6.90;99.90;;;;;;5045233;28;20036;-59
2022/02/02 07:52:56;;;;;;;47.80;8.15;;;6.80;99.90;;;;;;5023894;28;20628;-59
2022/02/02 07:55:25;;;;;;;46.42;7.35;;;6.80;99.90;;;;;;5043869;28;20115;-57
2022/02/02 07:57:52;;;;;;;44.97;9.00;;;6.80;99.90;;;;;;5044485;28;20033;-60
2022/02/02 08:00:21;;;;;;;42.75;6.88;;;6.80;99.90;;;;;;5036090;28;20108;-60
2022/02/02 08:03:06;;;;;;;45.40;7.78;;;6.80;99.90;;;;;;5026887;28;20453;-60
2022/02/02 08:05:36;;;;;;;46.53;7.93;;;6.90;99.90;;;;;;5038724;28;20040;-59
2022/02/02 08:10:48;;;;;;;40.15;6.30;;;6.80;99.90;;;;;;5040338;28;20048;-60
2022/02/02 08:13:18;;;;;;;45.03;8.65;;;6.90;99.90;;;;;;5034003;28;20159;-60
2022/02/02 08:15:44;;;;;;;37.90;6.25;;;6.90;99.90;;;;;;5041929;28;20025;-58
2022/02/02 08:18:10;;;;;;;58.65;8.70;;;7.00;99.90;;;;;;5035002;28;20407;-58
2022/02/02 08:20:36;;;;;;;46.78;7.22;;;7.00;99.90;;;;;;5037583;28;20040;-60
2022/02/02 08:23:02;;;;;;;48.42;8.48;;;7.10;99.90;;;;;;5040625;28;20044;-58
2022/02/02 08:25:30;;;;;;;49.80;6.72;;;7.10;99.90;;;;;;5037895;28;20380;-60
2022/02/02 08:27:59;;;;;;;39.03;7.15;;;7.10;99.90;;;;;;5036272;28;20029;-59
2022/02/02 08:30:27;;;;;;;39.72;7.45;;;7.20;99.90;;;;;;5035042;28;20029;-59
2022/02/02 08:32:57;;;;;;;48.70;7.50;;;7.20;99.90;;;;;;5040872;28;20493;-60
2022/02/02 08:35:25;;;;;;;39.90;6.60;;;7.20;99.90;;;;;;5042581;28;20487;-60
2022/02/02 08:40:45;;;;;;;49.10;6.82;;;7.20;99.90;;;;;;5015478;28;20037;-61
2022/02/02 08:43:18;;;;;;;40.60;7.68;;;7.30;99.90;;;;;;5035612;28;20083;-60
2022/02/02 08:45:46;;;;;;;44.67;8.05;;;7.30;99.90;;;;;;5035705;28;20114;-55
2022/02/02 08:48:18;;;;;;;33.90;6.32;;;7.30;99.90;;;;;;5037021;28;20033;-60
2022/02/02 08:50:49;;;;;;;52.83;7.43;;;7.20;99.90;;;;;;5036762;28;20112;-59
2022/02/02 08:53:49;;;;;;;53.13;7.50;;;7.30;99.90;;;;;;5038361;28;20036;-60
2022/02/02 08:58:46;;;;;;;26.35;5.75;;;7.60;99.90;;;;;;5042066;28;20439;-60
2022/02/02 09:01:25;;;;;;;34.88;6.45;;;7.70;99.90;;;;;;5031548;28;20076;-60
2022/02/02 09:06:35;;;;;;;32.83;7.30;;;7.70;99.90;;;;;;5036979;28;20113;-56
2022/02/02 09:09:14;;;;;;;37.90;9.20;;;7.70;99.90;;;;;;5041636;28;20116;-60
2022/02/02 09:23:26;;;;;;;40.72;6.85;;;7.90;99.90;;;;;;5046743;28;20052;-60
2022/02/02 09:25:54;;;;;;;35.15;8.98;;;8.00;99.90;;;;;;5039745;28;20078;-60
2022/02/02 09:33:52;;;;;;;37.67;8.23;;;8.20;99.90;;;;;;5036037;28;20072;-58
2022/02/02 09:36:22;;;;;;;40.92;6.10;;;8.20;99.90;;;;;;5048456;28;20108;-60
2022/02/02 09:38:51;;;;;;;40.58;6.75;;;8.10;99.90;;;;;;5037343;28;20029;-59
2022/02/02 09:41:37;;;;;;;38.22;7.63;;;8.20;99.90;;;;;;5045217;28;20033;-60
2022/02/02 09:44:06;;;;;;;43.08;8.30;;;8.20;99.90;;;;;;5036361;28;20503;-59
2022/02/02 09:49:18;;;;;;;39.03;6.35;;;8.20;99.90;;;;;;5043572;28;20768;-59
2022/02/02 09:52:01;;;;;;;38.75;6.68;;;8.30;99.90;;;;;;5045785;28;20041;-57
2022/02/02 09:54:45;;;;;;;33.15;5.85;;;8.50;99.90;;;;;;5042821;28;20402;-60
2022/02/02 10:15:25;;;;;;;34.50;6.75;;;8.60;99.90;;;;;;5034590;28;20034;-59
2022/02/02 10:18:10;;;;;;;24.58;5.28;;;8.60;99.90;;;;;;5037949;28;20383;-59
2022/02/02 10:20:37;;;;;;;39.00;7.28;;;8.60;99.90;;;;;;5045528;28;20056;-58
2022/02/02 10:23:04;;;;;;;26.67;5.28;;;8.40;99.90;;;;;;5038004;28;20144;-61
2022/02/02 10:25:35;;;;;;;25.83;7.07;;;8.50;99.90;;;;;;5037400;28;20025;-58
2022/02/02 10:28:15;;;;;;;37.97;6.82;;;8.50;99.90;;;;;;5038888;28;20022;-60
2022/02/02 10:30:47;;;;;;;23.95;6.32;;;8.60;99.90;;;;;;5040985;28;20025;-60
2022/02/02 10:33:24;;;;;;;29.95;6.53;;;8.60;99.90;;;;;;5039003;28;20026;-60
2022/02/02 10:35:53;;;;;;;35.15;6.95;;;8.60;99.90;;;;;;5044406;28;20106;-60
2022/02/02 10:38:24;;;;;;;38.70;6.30;;;8.50;99.90;;;;;;5041833;28;20507;-61
2022/02/02 10:43:56;;;;;;;35.65;8.38;;;8.40;99.90;;;;;;5037059;28;20033;-59
2022/02/02 10:46:42;;;;;;;30.63;8.30;;;8.30;99.90;;;;;;5043398;28;20490;-61
2022/02/02 10:49:20;;;;;;;40.35;6.90;;;8.10;99.90;;;;;;5041378;28;20120;-60
2022/02/02 10:51:56;;;;;;;35.88;5.75;;;8.10;99.90;;;;;;5041649;28;20116;-58
2022/02/02 10:54:36;;;;;;;31.80;7.50;;;8.00;99.90;;;;;;5042924;28;20037;-59
2022/02/02 10:57:34;;;;;;;42.40;8.15;;;8.00;99.90;;;;;;5039434;28;20037;-60
2022/02/02 11:00:24;;;;;;;45.63;6.90;;;7.90;99.90;;;;;;5037044;28;20029;-60
2022/02/02 11:08:20;;;;;;;51.40;8.25;;;8.00;99.90;;;;;;5040315;28;20060;-58
2022/02/02 11:10:49;;;;;;;46.55;8.60;;;8.20;99.90;;;;;;5037406;28;20097;-59
2022/02/02 11:13:16;;;;;;;40.67;6.75;;;8.50;99.90;;;;;;5035349;28;20021;-58
2022/02/02 11:15:51;;;;;;;53.13;8.95;;;8.60;99.90;;;;;;5041275;28;20030;-61
2022/02/02 11:18:35;;;;;;;46.65;8.60;;;8.60;99.90;;;;;;5045981;28;20490;-60
2022/02/02 11:21:11;;;;;;;39.47;7.90;;;8.80;99.90;;;;;;5050024;28;20053;-59
2022/02/02 11:23:45;;;;;;;41.25;7.95;;;8.70;99.90;;;;;;5032847;28;20030;-61
2022/02/02 11:26:10;;;;;;;42.28;7.53;;;8.70;99.90;;;;;;5042545;28;20033;-60
2022/02/02 11:28:37;;;;;;;40.42;7.30;;;8.90;99.90;;;;;;5047184;28;20021;-60
2022/02/02 11:31:14;;;;;;;37.00;7.30;;;9.00;99.90;;;;;;5038021;28;20372;-60
2022/02/02 11:33:53;;;;;;;36.08;7.05;;;8.90;99.90;;;;;;5047897;28;20021;-58
2022/02/02 11:36:33;;;;;;;38.05;7.68;;;9.00;99.90;;;;;;5033201;28;20120;-59
2022/02/02 11:39:03;;;;;;;50.58;9.73;;;9.00;99.90;;;;;;5035998;28;20028;-56
2022/02/02 11:41:52;;;;;;;30.95;8.75;;;9.00;99.90;;;;;;5044010;28;20035;-58
2022/02/02 11:44:29;;;;;;;40.83;8.18;;;8.90;99.90;;;;;;5037071;28;20025;-59
2022/02/02 11:50:11;;;;;;;38.53;6.50;;;8.70;99.90;;;;;;5039175;28;20026;-58
2022/02/02 11:52:42;;;;;;;38.75;7.05;;;8.70;99.90;;;;;;5033543;28;20030;-58
2022/02/02 11:55:11;;;;;;;41.28;8.48;;;8.60;99.90;;;;;;5041505;28;20794;-60
2022/02/02 11:58:20;;;;;;;42.08;8.52;;;8.70;99.90;;;;;;5030582;28;20022;-60
2022/02/02 12:01:24;;;;;;;39.83;7.05;;;8.70;99.90;;;;;;5037201;28;20079;-59
2022/02/02 12:04:19;;;;;;;40.35;7.65;;;8.80;99.90;;;;;;5022071;28;20136;-61
2022/02/02 12:06:59;;;;;;;37.03;8.35;;;8.80;99.90;;;;;;5047784;28;20047;-60
2022/02/02 12:09:41;;;;;;;44.78;6.55;;;8.80;99.90;;;;;;5043637;28;20078;-60
2022/02/02 13:00:07;;;;;;;30.30;5.90;;;9.00;99.90;;;;;;5038634;28;20052;-59
2022/02/02 13:02:41;;;;;;;37.35;6.85;;;9.30;99.90;;;;;;5023342;28;20041;-60
2022/02/02 13:05:09;;;;;;;35.50;7.85;;;9.40;99.90;;;;;;5033845;28;20467;-61
2022/02/02 13:07:37;;;;;;;38.13;7.03;;;9.70;99.90;;;;;;5046708;28;20035;-59
2022/02/02 13:10:05;;;;;;;36.08;8.05;;;9.90;99.90;;;;;;5040668;28;20116;-60
2022/02/02 13:12:41;;;;;;;36.85;7.53;;;10.20;99.90;;;;;;5040787;28;20021;-60
2022/02/02 13:18:00;;;;;;;36.30;6.25;;;10.60;99.90;;;;;;5035211;28;20029;-60
2022/02/02 13:21:02;;;;;;;36.65;6.00;;;10.60;99.90;;;;;;5039108;28;20047;-59
2022/02/02 13:24:02;;;;;;;30.10;5.78;;;10.60;99.90;;;;;;5039125;28;20037;-61
2022/02/02 13:26:35;;;;;;;24.08;6.05;;;10.50;99.90;;;;;;5037455;28;20045;-60
2022/02/02 13:29:06;;;;;;;;;;;10.40;99.90;;;;;;5034859;28;20506;-61
2022/02/02 13:34:16;;;;;;;22.73;6.40;;;10.40;99.90;;;;;;5041402;28;20182;-61
2022/02/02 13:36:53;;;;;;;33.10;5.85;;;10.50;99.90;;;;;;5043821;28;20379;-59
2022/02/02 13:42:36;;;;;;;29.17;7.18;;;10.30;99.90;;;;;;5038261;28;20044;-59
2022/02/02 13:51:26;;;;;;;27.83;5.05;;;10.00;99.90;;;;;;5032993;28;20057;-58
2022/02/02 13:56:59;;;;;;;27.08;4.57;;;10.00;99.90;;;;;;5049819;28;20025;-60
2022/02/02 13:59:56;;;;;;;29.20;6.07;;;10.10;99.90;;;;;;5034375;28;20033;-60
2022/02/02 14:03:52;;;;;;;30.02;5.22;;;10.10;99.90;;;;;;5051447;28;20555;-59
2022/02/02 14:09:03;;;;;;;29.92;6.03;;;10.10;99.90;;;;;;5014770;28;20061;-61
2022/02/02 14:25:39;;;;;;;34.55;7.55;;;10.20;99.90;;;;;;5029989;28;20091;-60
2022/02/02 14:32:56;;;;;;;25.98;5.25;;;10.30;99.90;;;;;;5018367;28;20156;-60
2022/02/02 14:35:22;;;;;;;24.90;4.75;;;10.10;99.90;;;;;;5016951;28;20041;-60
2022/02/02 14:37:49;;;;;;;18.63;4.70;;;10.10;99.90;;;;;;5014891;28;20033;-54
2022/02/02 14:40:23;;;;;;;24.33;4.85;;;10.20;99.90;;;;;;5020804;28;20041;-60
2022/02/02 14:42:52;;;;;;;24.65;5.97;;;10.10;99.90;;;;;;5011919;28;20045;-60
2022/02/02 14:45:21;;;;;;;25.80;5.13;;;10.10;99.90;;;;;;5013577;28;20034;-59
2022/02/02 14:47:51;;;;;;;20.70;3.67;;;10.20;99.90;;;;;;5012435;28;20051;-52
2022/02/02 14:50:29;;;;;;;24.25;4.75;;;9.90;99.90;;;;;;5020078;28;20037;-59
2022/02/02 14:53:12;;;;;;;26.45;4.85;;;9.90;99.90;;;;;;5011903;28;20558;-60
2022/02/02 14:56:20;;;;;;;19.35;4.95;;;10.00;99.90;;;;;;5023652;28;20037;-59
2022/02/02 15:10:03;;;;;;;29.80;5.35;;;9.70;99.90;;;;;;5024252;28;20030;-59
2022/02/02 15:29:03;;;;;;;23.83;4.22;;;9.00;99.90;;;;;;5013535;28;20057;-60
2022/02/02 15:31:29;;;;;;;20.15;3.80;;;8.80;99.90;;;;;;5029068;28;20064;-60
2022/02/02 15:33:56;;;;;;;30.80;6.00;;;8.80;99.90;;;;;;5022804;28;20056;-60
2022/02/02 15:39:05;;;;;;;21.83;3.95;;;8.70;99.90;;;;;;5024211;28;20443;-59
2022/02/02 15:41:40;;;;;;;31.80;4.80;;;8.60;99.90;;;;;;5021337;28;20029;-60
2022/02/02 16:02:21;;;;;;;23.67;4.53;;;7.70;99.90;;;;;;5026633;28;20349;-60
2022/02/02 16:04:47;;;;;;;25.75;4.53;;;7.70;99.90;;;;;;5008526;28;20053;-60
2022/02/02 16:07:23;;;;;;;22.58;4.00;;;7.60;99.90;;;;;;5024998;28;20052;-61
2022/02/02 16:09:52;;;;;;;26.38;4.22;;;7.60;99.90;;;;;;5021986;28;20021;-54
2022/02/02 16:15:01;;;;;;;21.77;3.67;;;7.40;99.90;;;;;;5024052;28;20033;-59
2022/02/02 16:17:42;;;;;;;25.45;4.88;;;7.30;99.90;;;;;;5022396;28;20037;-61
2022/02/02 16:34:36;;;;;;;23.88;3.30;;;6.90;99.90;;;;;;5024288;28;20092;-58
2022/02/02 16:36:36;;;;;;;23.58;4.88;;;6.90;99.90;;;;;;5025820;28;20025;-59
2022/02/02 16:44:19;;;;;;;26.00;5.50;;;6.90;99.90;;;;;;5025243;28;20568;-60
2022/02/02 16:46:44;;;;;;;23.95;5.03;;;7.00;99.90;;;;;;5021897;28;20042;-59
2022/02/02 16:49:10;;;;;;;22.55;4.70;;;6.90;99.90;;;;;;5025963;28;20026;-61
2022/02/02 16:51:36;;;;;;;32.03;4.93;;;6.90;99.90;;;;;;5024025;28;20388;-59
2022/02/02 16:54:05;;;;;;;27.65;6.70;;;6.80;99.90;;;;;;5023480;28;20360;-60
2022/02/02 17:29:40;;;;;;;33.38;7.95;;;6.60;99.90;;;;;;5031325;28;20120;-60
2022/02/02 17:31:50;;;;;;;34.13;8.32;;;6.50;99.90;;;;;;5028006;28;20569;-61
2022/02/02 17:34:24;;;;;;;30.50;7.13;;;6.50;99.90;;;;;;5027726;28;20043;-60
2022/02/02 17:37:16;;;;;;;35.10;8.13;;;6.50;99.90;;;;;;5033285;28;20029;-61
2022/02/02 17:39:53;;;;;;;26.10;5.35;;;6.50;99.90;;;;;;5024604;28;20025;-60
2022/02/02 17:42:53;;;;;;;23.52;5.90;;;6.50;99.90;;;;;;5018645;28;20030;-60
2022/02/02 17:45:39;;;;;;;27.08;6.00;;;6.60;99.90;;;;;;5030048;28;20135;-60
2022/02/02 18:15:56;;;;;;;34.10;8.27;;;6.60;99.90;;;;;;5012992;28;20033;-60
2022/02/02 18:23:43;;;;;;;32.80;7.82;;;6.70;99.90;;;;;;5028452;28;20037;-60
2022/02/02 18:26:17;;;;;;;31.30;8.65;;;6.70;99.90;;;;;;5030443;28;20095;-61
2022/02/02 18:29:35;;;;;;;38.67;8.40;;;6.70;99.90;;;;;;5026434;28;20056;-60
2022/02/02 19:05:28;;;;;;;29.30;9.00;;;6.20;99.90;;;;;;5016666;28;20142;-60
2022/02/02 19:38:18;;;;;;;36.92;12.15;;;6.30;99.90;;;;;;5035560;28;20041;-58
2022/02/02 20:02:06;;;;;;;31.30;9.45;;;6.40;99.90;;;;;;5039382;28;20043;-57
2022/02/02 20:07:10;;;;;;;36.25;10.75;;;6.40;99.90;;;;;;5036799;28;20060;-59
2022/02/02 20:09:52;;;;;;;34.88;8.85;;;6.40;99.90;;;;;;5032020;28;20025;-59
2022/02/02 20:12:24;;;;;;;40.08;9.13;;;6.40;99.90;;;;;;5039254;28;20038;-59
2022/02/02 20:14:50;;;;;;;30.83;8.80;;;6.40;99.90;;;;;;5040800;28;20096;-61
2022/02/02 20:17:18;;;;;;;29.17;7.78;;;6.40;99.90;;;;;;5036414;28;20116;-58
2022/02/02 20:19:49;;;;;;;29.73;9.18;;;6.50;99.90;;;;;;5033805;28;20041;-61
2022/02/02 20:22:17;;;;;;;28.30;7.50;;;6.50;99.90;;;;;;5037870;28;20041;-60
2022/02/02 20:24:52;;;;;;;33.28;8.13;;;6.50;99.90;;;;;;5033889;28;20098;-59
2022/02/02 20:27:17;;;;;;;25.60;7.78;;;6.60;99.90;;;;;;5041659;28;20040;-60
2022/02/02 20:29:43;;;;;;;27.02;7.43;;;6.60;99.90;;;;;;5040722;28;20033;-60
2022/02/02 20:32:08;;;;;;;27.50;7.32;;;6.60;99.90;;;;;;5034705;28;20044;-60
2022/02/02 20:34:34;;;;;;;27.05;7.72;;;6.60;99.90;;;;;;5033395;28;20052;-60
2022/02/02 20:37:00;;;;;;;23.85;7.10;;;6.60;99.90;;;;;;5045435;28;20036;-61
2022/02/02 20:41:53;;;;;;;28.55;7.88;;;6.70;99.90;;;;;;5046233;28;20722;-60
2022/02/02 20:44:25;;;;;;;39.35;8.15;;;6.60;99.90;;;;;;5038277;28;20041;-60
2022/02/02 21:08:20;;;;;;;42.30;9.98;;;6.70;99.90;;;;;;5047399;28;20406;-60
2022/02/02 21:10:48;;;;;;;37.90;10.93;;;6.70;99.90;;;;;;5038678;28;20503;-60
2022/02/02 21:15:58;;;;;;;40.92;10.88;;;6.60;99.90;;;;;;5035867;28;20083;-60
2022/02/02 21:18:31;;;;;;;40.80;11.88;;;6.60;99.90;;;;;;5037180;28;20596;-60
2022/02/02 21:23:44;;;;;;;39.53;12.57;;;6.60;99.90;;;;;;5043439;28;20041;-58
2022/02/02 21:26:17;;;;;;;44.25;13.35;;;6.60;99.90;;;;;;5042602;28;20026;-60
2022/02/02 21:28:43;;;;;;;44.05;13.88;;;6.60;99.90;;;;;;5045034;28;20040;-60
2022/02/02 21:31:10;;;;;;;51.55;14.32;;;6.50;99.90;;;;;;5044248;28;20375;-60
2022/02/02 21:33:38;;;;;;;51.47;15.23;;;6.50;99.90;;;;;;5045136;28;20417;-60
2022/02/02 21:36:07;;;;;;;42.72;12.88;;;6.50;99.90;;;;;;5037040;28;20398;-60
2022/02/02 21:38:54;;;;;;;43.47;15.57;;;6.50;99.90;;;;;;5039867;28;20029;-61
2022/02/02 21:41:24;;;;;;;49.00;14.07;;;6.50;99.90;;;;;;5033607;28;20040;-60
2022/02/02 21:43:50;;;;;;;38.97;14.23;;;6.50;99.90;;;;;;5034922;28;20030;-56
2022/02/02 21:46:15;;;;;;;39.38;14.05;;;6.50;99.90;;;;;;5043407;28;20052;-61
2022/02/02 21:48:42;;;;;;;45.45;14.57;;;6.50;99.90;;;;;;5032898;28;20140;-61
2022/02/02 21:51:10;;;;;;;48.15;15.82;;;6.60;99.90;;;;;;5040568;28;20411;-61
2022/02/02 21:53:36;;;;;;;41.88;16.52;;;6.60;99.90;;;;;;5048223;28;20025;-61
2022/02/02 21:56:03;;;;;;;46.42;17.92;;;6.60;99.90;;;;;;5043784;28;20871;-60
2022/02/02 21:58:28;;;;;;;49.83;18.02;;;6.60;99.90;;;;;;5033668;28;20028;-62
2022/02/02 22:00:54;;;;;;;52.58;20.35;;;6.70;99.90;;;;;;5036908;28;20029;-59
2022/02/02 22:03:19;;;;;;;51.30;19.98;;;6.70;99.90;;;;;;5043045;28;20030;-59
2022/02/02 22:05:45;;;;;;;54.63;19.75;;;6.70;99.90;;;;;;5010298;28;20080;-59
2022/02/02 22:08:11;;;;;;;51.90;19.25;;;6.70;99.90;;;;;;5024173;28;20156;-58
2022/02/02 22:10:38;;;;;;;45.95;18.90;;;6.70;99.90;;;;;;5025303;28;20459;-60
2022/02/02 22:13:04;;;;;;;39.00;18.33;;;6.70;99.90;;;;;;5012287;28;20490;-59
2022/02/02 22:15:40;;;;;;;42.63;18.67;;;6.70;99.90;;;;;;5014989;28;20022;-59
2022/02/02 22:18:05;;;;;;;45.20;19.85;;;6.70;99.90;;;;;;5023535;28;20091;-61
2022/02/02 22:20:31;;;;;;;44.95;22.05;;;6.70;99.90;;;;;;5019734;28;20021;-61
2022/02/02 22:22:57;;;;;;;44.83;20.60;;;6.70;99.90;;;;;;5022934;28;20030;-60
2022/02/02 22:25:23;;;;;;;63.25;23.10;;;6.70;99.90;;;;;;5019285;28;20022;-60
2022/02/02 22:27:52;;;;;;;41.28;20.95;;;6.70;99.90;;;;;;5023582;28;20045;-59
2022/02/02 22:30:17;;;;;;;50.95;21.77;;;6.70;99.90;;;;;;5029328;28;20777;-60
2022/02/02 22:32:43;;;;;;;47.53;23.02;;;6.70;99.90;;;;;;5020613;28;20042;-59
2022/02/02 22:35:09;;;;;;;43.38;22.10;;;6.70;99.90;;;;;;5026838;28;20044;-61
2022/02/02 22:37:35;;;;;;;52.40;25.85;;;6.70;99.90;;;;;;5026149;28;20065;-61
2022/02/02 22:40:02;;;;;;;39.83;21.52;;;6.70;99.90;;;;;;5024879;28;20384;-60
2022/02/02 22:42:29;;;;;;;39.60;22.90;;;6.70;99.90;;;;;;5028191;28;20061;-60
2022/02/02 22:44:59;;;;;;;46.35;22.15;;;6.70;99.90;;;;;;5027725;28;20484;-60
2022/02/02 22:47:28;;;;;;;43.75;21.35;;;6.80;99.90;;;;;;5025238;28;20081;-59
2022/02/02 22:49:54;;;;;;;40.25;23.35;;;6.80;99.90;;;;;;5028565;28;20372;-59
2022/02/02 22:52:20;;;;;;;44.40;21.67;;;6.80;99.90;;;;;;5025783;28;20091;-59
2022/02/02 22:54:46;;;;;;;64.35;27.80;;;6.80;99.90;;;;;;5021853;28;20093;-60
2022/02/02 22:57:11;;;;;;;54.13;28.02;;;6.80;99.90;;;;;;5025852;28;20053;-60
2022/02/02 22:59:40;;;;;;;48.30;27.83;;;6.80;99.90;;;;;;5023758;28;20409;-59
2022/02/02 23:04:57;;;;;;;74.25;36.63;;;6.90;99.90;;;;;;4994798;28;20080;-59
2022/02/02 23:07:22;;;;;;;66.47;33.38;;;6.90;99.90;;;;;;5021018;28;20030;-60
2022/02/02 23:09:50;;;;;;;66.00;28.90;;;6.90;99.90;;;;;;5022293;28;20022;-59
2022/02/02 23:12:15;;;;;;;47.75;26.20;;;6.90;99.90;;;;;;5010399;28;20033;-59
2022/02/02 23:14:44;;;;;;;48.70;25.25;;;6.90;99.90;;;;;;5020777;28;20029;-58
2022/02/02 23:17:10;;;;;;;43.67;22.65;;;6.90;99.90;;;;;;5019419;28;20112;-60
2022/02/02 23:19:39;;;;;;;52.80;22.33;;;6.90;99.90;;;;;;5018545;28;20132;-56
2022/02/02 23:22:06;;;;;;;56.63;21.23;;;6.90;99.90;;;;;;5017681;28;20021;-58
2022/02/02 23:24:36;;;;;;;64.53;23.55;;;6.90;99.90;;;;;;5021978;28;20021;-59
2022/02/02 23:27:02;;;;;;;49.45;20.63;;;6.90;99.90;;;;;;5022419;28;20038;-59
2022/02/02 23:29:31;;;;;;;41.35;17.60;;;6.90;99.90;;;;;;5015825;28;20447;-60
2022/02/02 23:31:57;;;;;;;94.18;21.92;;;7.00;99.90;;;;;;5020674;28;20037;-59
2022/02/02 23:34:24;;;;;;;70.13;20.63;;;7.00;99.90;;;;;;5021744;28;20463;-58